createdAt,value
2022-11-28T00:00:43.191Z,41.03
2022-11-28T00:03:11.925Z,41.50
2022-11-28T00:05:47.150Z,43.53
2022-11-28T00:08:17.925Z,41.87
2022-11-28T00:10:53.898Z,41.33
2022-11-28T00:13:34.896Z,39.87
2022-11-28T00:16:07.849Z,36.40
2022-11-28T00:18:37.561Z,40.23
2022-11-28T00:21:08.654Z,34.37
2022-11-28T00:23:49.237Z,36.30
2022-11-28T00:26:21.153Z,36.57
2022-11-28T00:28:55.010Z,37.00
2022-11-28T00:31:33.872Z,32.43
2022-11-28T00:34:07.187Z,36.10
2022-11-28T00:36:42.435Z,32.53
2022-11-28T00:39:14.347Z,34.53
2022-11-28T00:41:52.793Z,38.63
2022-11-28T00:44:27.612Z,39.87
2022-11-28T00:46:59.140Z,31.70
2022-11-28T00:49:37.829Z,34.20
2022-11-28T00:52:15.161Z,35.50
2022-11-28T00:54:54.604Z,34.67
2022-11-28T00:57:25.048Z,32.80
2022-11-28T00:59:59.622Z,29.30
2022-11-28T01:02:40.689Z,35.17
2022-11-28T01:05:12.732Z,30.07
2022-11-28T01:07:43.633Z,34.67
2022-11-28T01:10:16.735Z,30.53
2022-11-28T01:12:47.127Z,30.17
2022-11-28T01:15:28.425Z,30.23
2022-11-28T01:17:58.400Z,28.00
2022-11-28T01:20:30.296Z,29.37
2022-11-28T01:23:04.319Z,30.47
2022-11-28T01:25:35.974Z,26.37
2022-11-28T01:28:04.126Z,26.33
2022-11-28T01:30:40.851Z,31.20
2022-11-28T01:33:11.503Z,30.53
2022-11-28T01:35:48.665Z,28.80
2022-11-28T01:38:18.152Z,31.93
2022-11-28T01:40:55.278Z,28.27
2022-11-28T01:43:32.290Z,26.43
2022-11-28T01:46:13.135Z,25.77
2022-11-28T01:48:48.497Z,26.80
2022-11-28T01:51:28.801Z,25.67
2022-11-28T01:54:06.083Z,29.63
2022-11-28T01:56:43.044Z,29.20
2022-11-28T01:59:16.529Z,24.87
2022-11-28T02:01:58.223Z,27.50
2022-11-28T02:04:39.542Z,28.17
2022-11-28T02:07:09.105Z,29.97
2022-11-28T02:09:40.717Z,29.77
2022-11-28T02:12:20.804Z,29.13
2022-11-28T02:16:02.648Z,29.67
2022-11-28T02:18:52.352Z,27.97
2022-11-28T02:21:36.444Z,27.20
2022-11-28T02:24:36.840Z,28.50
2022-11-28T02:27:31.973Z,31.27
2022-11-28T02:30:20.943Z,30.77
2022-11-28T02:33:15.899Z,29.10
2022-11-28T02:35:58.948Z,27.20
2022-11-28T02:38:38.539Z,27.80
2022-11-28T02:41:15.330Z,26.63
2022-11-28T02:44:03.780Z,29.20
2022-11-28T02:46:56.841Z,28.67
2022-11-28T02:49:35.608Z,27.07
2022-11-28T02:52:13.997Z,30.70
2022-11-28T02:54:50.884Z,26.83
2022-11-28T02:57:23.517Z,34.23
2022-11-28T02:59:53.276Z,25.83
2022-11-28T03:02:24.421Z,30.90
2022-11-28T03:05:04.525Z,24.83
2022-11-28T03:07:47.978Z,30.50
2022-11-28T03:10:25.779Z,32.00
2022-11-28T03:13:04.952Z,28.03
2022-11-28T03:15:45.967Z,26.90
2022-11-28T03:18:18.246Z,28.37
2022-11-28T03:20:57.679Z,28.67
2022-11-28T03:23:34.222Z,27.53
2022-11-28T03:26:11.243Z,27.83
2022-11-28T03:28:48.632Z,24.77
2022-11-28T03:31:20.279Z,30.53
2022-11-28T03:33:52.916Z,23.50
2022-11-28T03:36:30.757Z,24.90
2022-11-28T03:39:09.431Z,29.63
2022-11-28T03:44:44.913Z,24.20
2022-11-28T03:47:38.561Z,26.80
2022-11-28T03:50:10.334Z,26.77
2022-11-28T03:52:52.893Z,26.90
2022-11-28T03:55:29.851Z,31.80
2022-11-28T03:58:09.056Z,27.67
2022-11-28T04:00:45.054Z,23.70
2022-11-28T04:03:24.714Z,26.97
2022-11-28T04:05:58.618Z,19.77
2022-11-28T04:08:36.866Z,24.73
2022-11-28T04:11:16.153Z,25.30
2022-11-28T04:13:50.361Z,27.43
2022-11-28T04:16:25.928Z,29.03
2022-11-28T04:19:05.717Z,24.03
2022-11-28T04:21:57.393Z,26.53
2022-11-28T04:24:32.960Z,26.90
2022-11-28T04:27:08.268Z,23.17
2022-11-28T04:29:43.662Z,28.47
2022-11-28T04:32:20.788Z,25.50
2022-11-28T04:34:59.601Z,25.63
2022-11-28T04:37:28.786Z,31.10
2022-11-28T04:40:09.665Z,26.83
2022-11-28T04:42:55.975Z,24.67
2022-11-28T04:45:33.321Z,22.97
2022-11-28T04:48:05.038Z,24.90
2022-11-28T04:50:42.755Z,22.90
2022-11-28T04:53:14.681Z,27.43
2022-11-28T04:55:51.827Z,24.37
2022-11-28T04:58:27.526Z,25.50
2022-11-28T05:00:58.053Z,26.17
2022-11-28T05:03:30.238Z,24.53
2022-11-28T05:06:03.834Z,26.27
2022-11-28T05:08:35.070Z,24.80
2022-11-28T05:11:10.134Z,25.17
2022-11-28T05:13:38.377Z,23.33
2022-11-28T05:16:16.108Z,24.90
2022-11-28T05:18:47.774Z,25.53
2022-11-28T05:21:16.575Z,24.23
2022-11-28T05:23:46.629Z,25.13
2022-11-28T05:26:25.688Z,24.10
2022-11-28T05:28:54.049Z,25.53
2022-11-28T05:31:25.178Z,23.93
2022-11-28T05:33:56.098Z,19.10
2022-11-28T05:36:25.073Z,23.90
2022-11-28T05:39:02.124Z,21.83
2022-11-28T05:41:42.260Z,21.60
2022-11-28T05:44:24.084Z,17.60
2022-11-28T05:46:55.614Z,21.30
2022-11-28T05:49:27.154Z,18.07
2022-11-28T05:52:08.197Z,18.40
2022-11-28T05:54:45.328Z,19.27
2022-11-28T05:57:18.608Z,22.10
2022-11-28T05:59:53.709Z,18.90
2022-11-28T06:02:21.993Z,19.90
2022-11-28T06:04:51.276Z,22.83
2022-11-28T06:07:22.682Z,19.53
2022-11-28T06:09:54.604Z,20.60
2022-11-28T06:12:29.766Z,24.73
2022-11-28T06:14:58.663Z,21.70
2022-11-28T06:17:29.481Z,20.77
2022-11-28T06:19:58.761Z,27.83
2022-11-28T06:22:33.045Z,29.43
2022-11-28T06:25:05.662Z,24.23
2022-11-28T06:27:43.284Z,24.47
2022-11-28T06:30:22.731Z,24.00
2022-11-28T06:32:53.059Z,23.33
2022-11-28T06:35:22.804Z,30.30
2022-11-28T06:37:51.416Z,26.43
2022-11-28T06:40:29.259Z,23.27
2022-11-28T06:43:16.074Z,25.93
2022-11-28T06:45:53.761Z,26.10
2022-11-28T06:48:23.206Z,28.63
2022-11-28T06:50:57.795Z,29.70
2022-11-28T06:53:31.253Z,25.43
2022-11-28T06:56:19.195Z,23.30
2022-11-28T06:58:49.784Z,23.30
2022-11-28T07:01:21.198Z,29.00
2022-11-28T07:03:50.860Z,25.70
2022-11-28T07:06:22.704Z,25.60
2022-11-28T07:08:51.521Z,27.97
2022-11-28T07:11:21.848Z,24.37
2022-11-28T07:13:51.701Z,27.30
2022-11-28T07:16:22.319Z,27.80
2022-11-28T07:18:51.607Z,29.17
2022-11-28T07:21:25.828Z,23.63
2022-11-28T07:23:58.299Z,23.40
2022-11-28T07:26:29.761Z,34.70
2022-11-28T07:29:02.258Z,27.80
2022-11-28T07:31:32.717Z,27.83
2022-11-28T07:34:05.475Z,31.37
2022-11-28T07:36:35.540Z,26.90
2022-11-28T07:39:08.393Z,23.00
2022-11-28T07:41:37.314Z,25.47
2022-11-28T07:44:18.061Z,31.53
2022-11-28T07:46:54.405Z,26.13
2022-11-28T07:49:25.598Z,26.90
2022-11-28T07:51:54.888Z,26.93
2022-11-28T07:54:24.589Z,27.57
2022-11-28T07:59:47.462Z,38.13
2022-11-28T08:02:17.140Z,28.03
2022-11-28T08:04:51.531Z,26.83
2022-11-28T08:07:22.256Z,26.77
2022-11-28T08:09:58.598Z,25.30
2022-11-28T08:12:32.067Z,24.50
2022-11-28T08:15:04.319Z,25.07
2022-11-28T08:17:32.373Z,22.30
2022-11-28T08:20:03.099Z,26.03
2022-11-28T08:22:38.668Z,25.43
2022-11-28T08:25:16.957Z,25.30
2022-11-28T08:27:48.827Z,26.57
2022-11-28T08:30:40.287Z,28.53
2022-11-28T08:33:26.001Z,21.07
2022-11-28T08:35:57.693Z,27.47
2022-11-28T08:38:32.892Z,25.83
2022-11-28T08:41:17.092Z,27.03
2022-11-28T08:43:47.804Z,25.90
2022-11-28T08:46:29.091Z,23.07
2022-11-28T08:48:59.804Z,24.63
2022-11-28T08:51:37.742Z,25.60
2022-11-28T08:54:15.808Z,24.13
2022-11-28T08:57:12.317Z,23.00
2022-11-28T08:59:43.425Z,19.37
2022-11-28T09:02:20.838Z,28.33
2022-11-28T09:05:07.531Z,22.47
2022-11-28T09:07:37.443Z,27.37
2022-11-28T09:10:12.413Z,23.67
2022-11-28T09:12:40.541Z,23.73
2022-11-28T09:15:11.194Z,22.77
2022-11-28T09:17:40.873Z,24.57
2022-11-28T09:20:19.569Z,25.10
2022-11-28T09:22:53.644Z,24.67
2022-11-28T09:25:22.560Z,26.23
2022-11-28T09:27:51.035Z,29.10
2022-11-28T09:30:22.844Z,28.87
2022-11-28T09:33:09.318Z,26.00
2022-11-28T09:35:40.665Z,22.10
2022-11-28T09:38:11.904Z,26.40
2022-11-28T09:40:49.434Z,24.13
2022-11-28T09:43:26.866Z,22.17
2022-11-28T09:46:04.903Z,22.47
2022-11-28T09:48:40.761Z,28.47
2022-11-28T09:51:24.675Z,28.50
2022-11-28T09:54:04.479Z,22.17
2022-11-28T09:56:32.971Z,22.77
2022-11-28T09:59:03.580Z,26.37
2022-11-28T10:01:52.120Z,19.77
2022-11-28T10:04:43.117Z,22.00
2022-11-28T10:07:20.078Z,27.00
2022-11-28T10:09:58.497Z,21.90
2022-11-28T10:12:50.481Z,24.37
2022-11-28T10:15:55.241Z,24.80
2022-11-28T10:18:41.225Z,30.53
2022-11-28T10:21:26.734Z,23.97
2022-11-28T10:24:01.620Z,24.17
2022-11-28T10:26:37.948Z,22.87
2022-11-28T10:29:21.055Z,24.47
2022-11-28T10:31:51.144Z,23.20
2022-11-28T10:34:22.421Z,19.07
2022-11-28T10:37:02.105Z,21.97
2022-11-28T10:39:39.104Z,21.67
2022-11-28T10:42:16.433Z,20.63
2022-11-28T10:45:02.438Z,20.33
2022-11-28T10:47:45.706Z,22.50
2022-11-28T10:50:26.894Z,18.27
2022-11-28T10:53:07.414Z,21.13
2022-11-28T10:55:44.774Z,24.00
2022-11-28T10:58:28.027Z,18.60
2022-11-28T11:01:05.829Z,16.90
2022-11-28T11:03:46.004Z,20.47
2022-11-28T11:06:15.510Z,23.33
2022-11-28T11:08:52.068Z,23.10
2022-11-28T11:11:30.537Z,27.83
2022-11-28T11:14:04.500Z,20.90
2022-11-28T11:16:52.906Z,23.57
2022-11-28T11:19:27.696Z,22.17
2022-11-28T11:22:05.757Z,23.20
2022-11-28T11:24:44.333Z,22.93
2022-11-28T11:27:20.985Z,24.53
2022-11-28T11:29:57.351Z,27.67
2022-11-28T11:32:30.871Z,25.57
2022-11-28T11:35:03.381Z,25.00
2022-11-28T11:37:33.985Z,23.70
2022-11-28T11:40:28.761Z,23.47
2022-11-28T11:42:59.822Z,26.90
2022-11-28T11:45:33.856Z,27.00
2022-11-28T11:48:03.270Z,20.53
2022-11-28T11:50:42.906Z,26.83
2022-11-28T11:53:15.242Z,26.30
2022-11-28T11:55:53.376Z,24.70
2022-11-28T11:58:23.822Z,24.27
2022-11-28T12:01:03.027Z,24.30
2022-11-28T12:03:36.714Z,25.93
2022-11-28T12:06:16.544Z,27.73
2022-11-28T12:08:53.453Z,27.33
2022-11-28T12:11:30.622Z,22.07
2022-11-28T12:14:06.762Z,26.70
2022-11-28T12:16:45.640Z,24.33
2022-11-28T12:19:27.541Z,23.97
2022-11-28T12:22:13.439Z,23.17
2022-11-28T12:24:49.381Z,22.60
2022-11-28T12:27:34.562Z,27.67
2022-11-28T12:30:21.458Z,26.03
2022-11-28T12:32:58.692Z,25.90
2022-11-28T12:35:41.160Z,29.73
2022-11-28T12:38:25.224Z,26.40
2022-11-28T12:41:09.843Z,30.17
2022-11-28T12:44:01.077Z,28.80
2022-11-28T12:46:44.980Z,24.70
2022-11-28T12:49:28.958Z,25.03
2022-11-28T12:52:05.919Z,30.73
2022-11-28T12:54:43.951Z,24.77
2022-11-28T12:57:20.936Z,27.93
2022-11-28T13:00:07.006Z,29.93
2022-11-28T13:02:51.162Z,28.70
2022-11-28T13:05:30.962Z,29.33
2022-11-28T13:08:20.549Z,26.40
2022-11-28T13:10:58.437Z,33.37
2022-11-28T13:13:35.541Z,30.93
2022-11-28T13:16:18.015Z,26.47
2022-11-28T13:18:56.919Z,25.67
2022-11-28T13:21:33.680Z,30.50
2022-11-28T13:24:11.721Z,31.33
2022-11-28T13:26:58.122Z,31.50
2022-11-28T13:29:34.349Z,26.60
2022-11-28T13:32:18.818Z,24.10
2022-11-28T13:34:47.637Z,26.67
2022-11-28T13:40:21.357Z,23.53
2022-11-28T13:43:07.221Z,27.30
2022-11-28T13:49:16.327Z,24.80
2022-11-28T13:51:57.617Z,26.50
2022-11-28T13:54:49.941Z,29.43
2022-11-28T13:57:23.561Z,24.03
2022-11-28T13:59:59.593Z,25.57
2022-11-28T14:02:37.222Z,31.53
2022-11-28T14:05:26.097Z,28.10
2022-11-28T14:07:55.868Z,30.10
2022-11-28T14:10:45.469Z,29.67
2022-11-28T14:13:38.580Z,27.90
2022-11-28T14:16:19.991Z,26.93
2022-11-28T14:19:06.970Z,34.70
2022-11-28T14:22:01.066Z,26.10
2022-11-28T14:24:51.736Z,31.37
2022-11-28T14:27:24.091Z,36.70
2022-11-28T14:30:04.659Z,29.40
2022-11-28T14:32:38.183Z,31.97
2022-11-28T14:35:32.422Z,29.30
2022-11-28T14:38:52.541Z,27.90
2022-11-28T14:41:21.909Z,30.53
2022-11-28T14:43:53.804Z,33.30
2022-11-28T14:46:28.412Z,30.90
2022-11-28T14:49:24.041Z,31.50
2022-11-28T14:52:38.452Z,31.60
2022-11-28T14:55:25.690Z,37.33
2022-11-28T14:57:58.097Z,43.67
2022-11-28T15:00:29.645Z,40.37
2022-11-28T15:03:12.210Z,31.00
2022-11-28T15:06:07.493Z,25.23
2022-11-28T15:09:03.180Z,39.70
2022-11-28T15:12:01.628Z,34.80
2022-11-28T15:14:32.662Z,34.60
2022-11-28T15:17:21.090Z,33.03
2022-11-28T15:19:58.235Z,43.57
2022-11-28T15:22:35.352Z,31.83
2022-11-28T15:25:22.447Z,28.87
2022-11-28T15:27:58.405Z,28.70
2022-11-28T15:30:50.175Z,28.30
2022-11-28T15:33:21.507Z,33.63
2022-11-28T15:36:01.049Z,30.90
2022-11-28T15:38:41.016Z,34.50
2022-11-28T15:41:18.538Z,30.20
2022-11-28T15:44:02.615Z,33.53
2022-11-28T15:46:39.838Z,29.67
2022-11-28T15:49:25.208Z,33.63
2022-11-28T15:51:55.438Z,33.70
2022-11-28T15:54:35.320Z,27.20
2022-11-28T15:57:14.031Z,29.50
2022-11-28T15:59:51.140Z,35.30
2022-11-28T16:02:27.531Z,29.13
2022-11-28T16:05:11.311Z,33.93
2022-11-28T16:07:43.936Z,30.37
2022-11-28T16:10:23.598Z,35.83
2022-11-28T16:13:03.694Z,36.60
2022-11-28T16:15:49.891Z,33.63
2022-11-28T16:18:29.823Z,38.73
2022-11-28T16:21:00.847Z,33.20
2022-11-28T16:23:31.812Z,35.03
2022-11-28T16:26:04.300Z,38.17
2022-11-28T16:28:43.711Z,36.30
2022-11-28T16:31:24.052Z,38.00
2022-11-28T16:33:54.129Z,39.90
2022-11-28T16:36:52.486Z,32.97
2022-11-28T16:39:36.395Z,36.70
2022-11-28T16:42:16.516Z,36.80
2022-11-28T16:44:54.398Z,38.50
2022-11-28T16:47:35.816Z,36.03
2022-11-28T16:50:29.456Z,38.67
2022-11-28T16:53:00.387Z,38.60
2022-11-28T16:55:51.224Z,35.17
2022-11-28T16:58:24.328Z,36.10
2022-11-28T17:01:15.686Z,36.80
2022-11-28T17:03:52.236Z,35.13
2022-11-28T17:06:36.461Z,35.00
2022-11-28T17:09:12.662Z,35.87
2022-11-28T17:11:45.720Z,31.33
2022-11-28T17:14:17.319Z,29.63
2022-11-28T17:16:52.104Z,30.03
2022-11-28T17:19:23.523Z,27.47
2022-11-28T17:22:10.084Z,30.30
2022-11-28T17:24:52.247Z,31.87
2022-11-28T17:27:31.685Z,27.80
2022-11-28T17:30:14.735Z,33.30
2022-11-28T17:33:00.470Z,28.53
2022-11-28T17:35:41.199Z,28.60
2022-11-28T17:38:11.895Z,29.40
2022-11-28T17:40:55.582Z,30.73
2022-11-28T17:43:35.944Z,31.90
2022-11-28T17:46:19.377Z,31.30
2022-11-28T17:49:06.393Z,30.40
2022-11-28T17:52:00.919Z,27.60
2022-11-28T17:54:39.283Z,30.20
2022-11-28T17:57:19.405Z,34.10
2022-11-28T18:00:07.056Z,31.00
2022-11-28T18:02:56.517Z,36.20
2022-11-28T18:05:29.097Z,29.07
2022-11-28T18:08:05.258Z,28.80
2022-11-28T18:10:41.444Z,28.87
2022-11-28T18:13:19.957Z,27.60
2022-11-28T18:15:55.946Z,31.90
2022-11-28T18:18:32.453Z,28.17
2022-11-28T18:21:20.347Z,30.20
2022-11-28T18:27:04.628Z,26.60
2022-11-28T18:32:42.367Z,36.07
2022-11-28T18:35:20.740Z,33.53
2022-11-28T18:37:59.943Z,35.87
2022-11-28T18:40:45.119Z,31.70
2022-11-28T18:43:18.667Z,32.50
2022-11-28T18:45:50.068Z,33.50
2022-11-28T18:48:28.721Z,34.47
2022-11-28T18:51:29.429Z,36.70
2022-11-28T18:54:04.313Z,32.90
2022-11-28T18:56:52.937Z,31.23
2022-11-28T18:59:37.129Z,30.80
2022-11-28T19:02:16.708Z,31.00
2022-11-28T19:05:02.151Z,33.40
2022-11-28T19:07:39.849Z,32.47
2022-11-28T19:10:18.528Z,31.30
2022-11-28T19:12:52.452Z,35.40
2022-11-28T19:15:33.061Z,36.67
2022-11-28T19:18:16.066Z,33.03
2022-11-28T19:20:47.507Z,34.10
2022-11-28T19:23:26.027Z,32.17
2022-11-28T19:26:06.847Z,34.53
2022-11-28T19:28:47.434Z,35.43
2022-11-28T19:31:21.114Z,36.10
2022-11-28T19:34:01.156Z,35.40
2022-11-28T19:36:46.457Z,34.03
2022-11-28T19:39:41.790Z,31.07
2022-11-28T19:42:34.730Z,35.40
2022-11-28T19:45:27.998Z,37.37
2022-11-28T19:48:06.777Z,34.60
2022-11-28T19:50:38.464Z,41.27
2022-11-28T19:53:23.932Z,35.63
2022-11-28T19:56:02.691Z,36.73
2022-11-28T19:58:46.024Z,37.87
2022-11-28T20:01:26.568Z,39.70
2022-11-28T20:04:06.825Z,39.93
2022-11-28T20:06:58.098Z,38.47
2022-11-28T20:09:35.991Z,45.43
2022-11-28T20:12:32.161Z,40.90
2022-11-28T20:15:18.399Z,46.27
2022-11-28T20:18:04.534Z,40.73
2022-11-28T20:20:54.935Z,44.27
2022-11-28T20:23:25.184Z,47.03
2022-11-28T20:25:57.073Z,43.27
2022-11-28T20:28:46.113Z,42.67
2022-11-28T20:31:24.822Z,46.40
2022-11-28T20:33:56.862Z,46.37
2022-11-28T20:36:29.084Z,47.43
2022-11-28T20:38:59.689Z,47.43
2022-11-28T20:41:31.154Z,44.73
2022-11-28T20:44:01.830Z,45.23
2022-11-28T20:46:35.268Z,47.87
2022-11-28T20:49:12.461Z,47.30
2022-11-28T20:51:42.396Z,47.23
2022-11-28T20:54:14.616Z,47.03
2022-11-28T20:59:37.807Z,44.10
2022-11-28T21:02:07.661Z,44.17
2022-11-28T21:04:40.529Z,44.17
2022-11-28T21:07:09.850Z,48.00
2022-11-28T21:09:38.357Z,48.67
2022-11-28T21:12:09.286Z,47.40
2022-11-28T21:14:37.837Z,44.80
2022-11-28T21:17:07.401Z,43.40
2022-11-28T21:19:36.167Z,51.57
2022-11-28T21:22:23.852Z,47.23
2022-11-28T21:24:56.110Z,46.47
2022-11-28T21:27:35.169Z,46.87
2022-11-28T21:30:08.902Z,49.57
2022-11-28T21:32:43.586Z,44.90
2022-11-28T21:35:15.270Z,45.00
2022-11-28T21:37:51.685Z,46.80
2022-11-28T21:40:25.815Z,50.57
2022-11-28T21:42:57.713Z,46.90
2022-11-28T21:45:34.421Z,46.37
2022-11-28T21:48:13.395Z,55.87
2022-11-28T21:50:51.436Z,34.77
2022-11-28T21:53:22.269Z,48.53
2022-11-28T21:56:01.004Z,40.97
2022-11-28T21:58:31.954Z,39.60
2022-11-28T22:01:02.662Z,45.80
2022-11-28T22:03:40.479Z,45.20
2022-11-28T22:06:16.847Z,45.47
2022-11-28T22:08:52.397Z,38.70
2022-11-28T22:11:24.728Z,42.43
2022-11-28T22:13:55.566Z,42.57
2022-11-28T22:16:29.196Z,42.83
2022-11-28T22:19:00.896Z,39.67
2022-11-28T22:24:38.205Z,43.17
2022-11-28T22:27:10.667Z,44.73
2022-11-28T22:29:42.296Z,39.57
2022-11-28T22:32:11.681Z,47.90
2022-11-28T22:34:49.618Z,40.43
2022-11-28T22:37:21.080Z,45.87
2022-11-28T22:39:53.068Z,40.93
2022-11-28T22:42:24.664Z,43.70
2022-11-28T22:44:55.411Z,40.03
2022-11-28T22:47:27.211Z,45.00
2022-11-28T22:50:05.960Z,41.77
2022-11-28T22:52:48.176Z,45.40
2022-11-28T22:55:20.227Z,44.83
2022-11-28T22:57:57.769Z,40.73
2022-11-28T23:00:28.472Z,44.50
2022-11-28T23:03:04.169Z,41.03
2022-11-28T23:05:47.900Z,43.60
2022-11-28T23:08:19.877Z,38.33
2022-11-28T23:10:58.085Z,39.27
2022-11-28T23:13:31.146Z,39.80
2022-11-28T23:16:18.927Z,46.40
2022-11-28T23:18:51.870Z,42.03
2022-11-28T23:21:22.151Z,44.80
2022-11-28T23:23:57.102Z,40.53
2022-11-28T23:26:31.561Z,43.17
2022-11-28T23:29:00.845Z,39.30
2022-11-28T23:31:41.556Z,41.17
2022-11-28T23:34:13.105Z,41.42
2022-11-28T23:36:46.708Z,42.13
2022-11-28T23:39:23.944Z,42.37
2022-11-28T23:41:55.669Z,40.60
2022-11-28T23:44:27.859Z,38.27
2022-11-28T23:47:11.615Z,38.37
2022-11-28T23:49:40.081Z,40.37
2022-11-28T23:52:08.334Z,40.57
2022-11-28T23:54:36.977Z,42.30
2022-11-28T23:57:10.853Z,41.40
2022-11-28T23:59:47.849Z,37.27
